Time;durP1;ratioP1;P1;durP2;ratioP2;P2;SDS_P1;SDS_P2;PMS_P1;PMS_P2;Temp;Humidity;BMP_temperature;BMP_pressure;BME280_temperature;BME280_humidity;BME280_pressure;Samples;Min_cycle;Max_cycle;Signal;HPM_P1;HPM_P2
2021/09/28 00:01:23;;;;;;;;;6.25;6.00;;;;;16.32;53.24;101859.13;5002460;28;45321;-46
2021/09/28 00:03:48;;;;;;;;;5.50;4.25;;;;;16.30;53.43;101852.97;5002728;28;45507;-47
2021/09/28 00:06:14;;;;;;;;;5.75;5.75;;;;;16.29;53.35;101853.88;5002412;28;45396;-48
2021/09/28 00:08:42;;;;;;;;;7.00;6.00;;;;;16.28;53.35;101858.31;5002320;28;45401;-51
2021/09/28 00:11:08;;;;;;;;;9.00;7.75;;;;;16.27;53.37;101853.06;5002159;28;45456;-50
2021/09/28 00:13:34;;;;;;;;;6.25;6.25;;;;;16.27;53.20;101855.72;5001268;28;45195;-48
2021/09/28 00:15:59;;;;;;;;;8.25;6.00;;;;;16.26;53.04;101865.44;5002417;28;45274;-50
2021/09/28 00:18:26;;;;;;;;;5.00;4.50;;;;;16.23;53.39;101863.72;5002305;28;45341;-48
2021/09/28 00:20:51;;;;;;;;;4.50;4.00;;;;;16.22;53.46;101867.25;5002396;28;45266;-51
2021/09/28 00:23:16;;;;;;;;;6.00;5.00;;;;;16.21;53.46;101868.19;5002352;28;45231;-49
2021/09/28 00:25:42;;;;;;;;;6.50;6.50;;;;;16.21;53.33;101868.19;5002444;28;45520;-50
2021/09/28 00:28:07;;;;;;;;;4.25;4.25;;;;;16.21;53.77;101872.59;5001768;28;45291;-49
2021/09/28 00:30:33;;;;;;;;;5.25;5.25;;;;;16.18;53.28;101864.72;5002408;28;45416;-51
2021/09/28 00:32:58;;;;;;;;;6.50;6.00;;;;;16.17;53.36;101863.84;5002174;28;45341;-47
2021/09/28 00:35:24;;;;;;;;;6.75;5.25;;;;;16.17;53.59;101876.22;5001922;28;45368;-45
2021/09/28 00:37:49;;;;;;;;;7.00;4.25;;;;;16.16;53.50;101883.31;5001731;28;45442;-47
2021/09/28 00:40:14;;;;;;;;;6.75;4.75;;;;;16.12;53.75;101878.09;5002303;28;45392;-47
2021/09/28 00:42:40;;;;;;;;;5.25;5.00;;;;;16.12;53.79;101888.72;5001903;28;45392;-49
2021/09/28 00:45:07;;;;;;;;;7.00;6.50;;;;;16.11;53.76;101889.59;5001877;28;45251;-50
2021/09/28 00:47:34;;;;;;;;;5.75;5.75;;;;;16.06;53.86;101885.28;5001784;28;46197;-47
2021/09/28 00:50:00;;;;;;;;;5.00;5.00;;;;;16.08;53.74;101893.19;5001899;28;45346;-47
2021/09/28 00:52:25;;;;;;;;;6.75;4.75;;;;;16.06;53.71;101890.56;5001771;28;45488;-49
2021/09/28 00:54:51;;;;;;;;;7.25;5.25;;;;;16.04;53.73;101900.31;5001848;28;45437;-48
2021/09/28 00:57:18;;;;;;;;;5.50;5.00;;;;;16.03;53.57;101893.25;5001328;28;46260;-48
2021/09/28 00:59:45;;;;;;;;;7.75;3.75;;;;;16.03;53.64;101884.44;5001810;28;45299;-48
2021/09/28 01:02:12;;;;;;;;;6.25;6.25;;;;;16.01;53.58;101886.25;5001759;28;45382;-50
2021/09/28 01:04:37;;;;;;;;;7.50;4.00;;;;;16.00;53.88;101884.50;5001642;28;45432;-50
2021/09/28 01:07:05;;;;;;;;;4.25;4.25;;;;;15.98;53.93;101881.88;5001560;28;45462;-50
2021/09/28 01:09:32;;;;;;;;;6.25;6.25;;;;;15.98;53.77;101881.88;5001683;28;45280;-51
2021/09/28 01:11:57;;;;;;;;;4.75;4.25;;;;;15.97;53.79;101876.63;5001236;28;45305;-49
2021/09/28 01:14:22;;;;;;;;;6.25;6.25;;;;;15.96;53.72;101869.56;5001408;28;45535;-49
2021/09/28 01:16:48;;;;;;;;;6.00;6.00;;;;;15.93;53.80;101866.03;5000011;28;46043;-50
2021/09/28 01:19:13;;;;;;;;;5.50;4.75;;;;;15.93;53.98;101863.41;5001775;28;45417;-47
2021/09/28 01:21:39;;;;;;;;;3.00;3.00;;;;;15.92;53.81;101869.63;5001390;28;45270;-45
2021/09/28 01:24:07;;;;;;;;;3.25;3.25;;;;;15.90;53.94;101860.81;5000983;28;45327;-48
2021/09/28 01:26:33;;;;;;;;;4.50;4.00;;;;;15.89;54.20;101866.16;4999280;28;48171;-50
2021/09/28 01:29:00;;;;;;;;;4.50;4.25;;;;;15.88;54.21;101869.69;5001374;28;45243;-47
2021/09/28 01:31:25;;;;;;;;;5.00;4.25;;;;;15.84;54.22;101863.56;5001282;28;45280;-47
2021/09/28 01:33:51;;;;;;;;;4.25;4.25;;;;;15.83;54.11;101861.81;5001368;28;45214;-45
2021/09/28 01:36:17;;;;;;;;;7.00;4.00;;;;;15.82;53.93;101862.72;5000588;28;46035;-49
2021/09/28 01:38:43;;;;;;;;;5.50;5.50;;;;;15.79;54.37;101869.84;5001163;28;45406;-50
2021/09/28 01:41:09;;;;;;;;;7.50;4.25;;;;;15.76;54.30;101868.13;5001229;28;45360;-47
2021/09/28 01:43:35;;;;;;;;;5.25;4.00;;;;;15.74;54.33;101865.47;5000837;28;45309;-46
2021/09/28 01:46:03;;;;;;;;;4.25;4.25;;;;;15.70;54.33;101865.59;5000660;28;46493;-50
2021/09/28 01:48:33;;;;;;;;;5.50;3.50;;;;;15.67;54.26;101857.69;5001258;28;45258;-48
2021/09/28 01:50:59;;;;;;;;;5.25;3.50;;;;;15.64;53.92;101858.59;5001002;28;45340;-51
2021/09/28 01:53:24;;;;;;;;;4.50;3.75;;;;;15.62;54.20;101851.59;5001078;28;45309;-50
2021/09/28 01:55:49;;;;;;;;;6.00;4.50;;;;;15.59;54.04;101852.50;4999380;28;47157;-48
2021/09/28 01:58:15;;;;;;;;;4.00;4.00;;;;;15.57;54.26;101851.66;5000701;28;45441;-48
2021/09/28 02:00:41;;;;;;;;;6.75;6.00;;;;;15.54;54.34;101847.28;5000944;28;45565;-48
2021/09/28 02:03:07;;;;;;;;;4.00;4.00;;;;;15.53;54.40;101845.53;5001022;28;45337;-47
2021/09/28 02:05:32;;;;;;;;;5.00;4.00;;;;;15.51;54.54;101846.47;5000739;28;45655;-45
2021/09/28 02:07:57;;;;;;;;;4.25;3.25;;;;;15.46;54.04;101846.56;5016101;28;45193;-50
2021/09/28 02:10:23;;;;;;;;;4.75;4.00;;;;;15.47;54.07;101843.03;4999515;28;45171;-49
2021/09/28 02:12:48;;;;;;;;;7.00;6.75;;;;;15.44;54.39;101838.66;5000496;28;45345;-49
2021/09/28 02:15:13;;;;;;;;;7.00;5.00;;;;;15.43;54.22;101836.00;5000556;28;45171;-47
2021/09/28 02:17:40;;;;;;;;;4.25;4.25;;;;;15.42;54.64;101834.25;5000552;28;45314;-49
2021/09/28 02:20:07;;;;;;;;;4.00;4.00;;;;;15.40;54.48;101829.00;5000668;28;45318;-49
2021/09/28 02:22:32;;;;;;;;;7.75;6.25;;;;;15.38;54.89;101829.91;5000571;28;45263;-48
2021/09/28 02:24:57;;;;;;;;;5.00;4.25;;;;;15.36;54.60;101829.94;5000225;28;46188;-49
2021/09/28 02:27:23;;;;;;;;;9.00;5.25;;;;;15.33;54.11;101835.28;5000150;28;45280;-48
2021/09/28 02:29:48;;;;;;;;;6.50;6.50;;;;;15.29;54.67;101833.59;5000451;28;45312;-48
2021/09/28 02:32:14;;;;;;;;;7.50;6.50;;;;;15.27;54.57;101824.81;5000717;28;45321;-49
2021/09/28 02:34:39;;;;;;;;;5.75;5.00;;;;;15.24;54.66;101823.09;4999970;28;45779;-48
2021/09/28 02:37:08;;;;;;;;;5.00;4.75;;;;;15.21;54.23;101820.47;4999780;28;45333;-50
2021/09/28 02:39:35;;;;;;;;;4.25;4.25;;;;;15.17;54.66;101824.09;5000305;28;45231;-48
2021/09/28 02:42:00;;;;;;;;;4.25;4.25;;;;;15.17;54.36;101824.09;4999828;28;45227;-48
2021/09/28 02:44:26;;;;;;;;;6.00;5.75;;;;;15.14;54.66;101821.47;4999951;28;46214;-48
2021/09/28 02:46:51;;;;;;;;;6.00;4.00;;;;;15.10;54.79;101822.44;5000281;28;45328;-49
2021/09/28 02:49:16;;;;;;;;;4.00;4.00;;;;;15.07;54.44;101818.06;5000546;28;45202;-49
2021/09/28 02:51:42;;;;;;;;;5.25;5.25;;;;;15.05;54.74;101813.69;5000244;28;45298;-49
2021/09/28 02:54:07;;;;;;;;;4.75;3.50;;;;;15.02;54.56;101809.31;4999981;28;45329;-45
2021/09/28 02:56:33;;;;;;;;;6.75;5.50;;;;;14.99;54.47;101811.13;5000133;28;45320;-49
2021/09/28 02:58:58;;;;;;;;;6.25;6.25;;;;;14.95;54.95;101819.13;5000133;28;45361;-46
2021/09/28 03:01:23;;;;;;;;;6.75;5.50;;;;;14.92;54.64;101808.59;5000170;28;45512;-49
2021/09/28 03:03:48;;;;;;;;;6.00;5.00;;;;;14.89;54.55;101810.41;4999896;28;46081;-48
2021/09/28 03:06:14;;;;;;;;;5.00;5.00;;;;;14.85;54.79;101809.56;4999966;28;45396;-46
2021/09/28 03:08:39;;;;;;;;;6.50;6.00;;;;;14.79;54.72;101810.56;5000088;28;45416;-46
2021/09/28 03:11:07;;;;;;;;;7.25;5.00;;;;;14.78;54.51;101813.22;5000019;28;45311;-45
2021/09/28 03:13:33;;;;;;;;;4.00;4.00;;;;;14.77;55.02;101812.34;4999706;28;45271;-47
2021/09/28 03:15:58;;;;;;;;;6.25;6.00;;;;;14.74;55.14;101808.84;4992945;28;45266;-45
2021/09/28 03:18:23;;;;;;;;;5.25;4.00;;;;;14.73;54.90;101801.81;5019801;28;45245;-47
2021/09/28 03:20:49;;;;;;;;;6.25;5.25;;;;;14.69;54.77;101808.94;5019614;28;45206;-46
2021/09/28 03:23:14;;;;;;;;;7.00;3.75;;;;;14.69;54.69;101808.03;5019580;28;46276;-46
2021/09/28 03:25:41;;;;;;;;;5.00;4.00;;;;;14.67;55.26;101810.72;5019640;28;45156;-45
2021/09/28 03:28:06;;;;;;;;;6.75;4.00;;;;;14.65;55.07;101801.91;5019324;28;45246;-45
2021/09/28 03:30:33;;;;;;;;;6.00;6.00;;;;;14.63;55.07;101809.00;5019347;28;45361;-46
2021/09/28 03:32:58;;;;;;;;;4.25;4.25;;;;;14.61;54.63;101809.00;5019401;28;46323;-48
2021/09/28 03:35:24;;;;;;;;;4.00;4.00;;;;;14.57;55.11;101804.66;5019028;28;45357;-48
2021/09/28 03:37:52;;;;;;;;;6.50;5.50;;;;;14.56;54.88;101816.13;5006274;28;45761;-50
2021/09/28 03:40:18;;;;;;;;;4.00;4.00;;;;;14.54;55.16;101807.34;4986930;28;45222;-45
2021/09/28 03:42:44;;;;;;;;;5.25;5.00;;;;;14.53;55.33;101810.88;4998965;28;45322;-49
2021/09/28 03:45:10;;;;;;;;;5.50;5.50;;;;;14.51;55.01;101807.38;4999496;28;45424;-46
2021/09/28 03:47:35;;;;;;;;;6.75;6.00;;;;;14.42;54.89;101794.28;4999673;28;45408;-49
2021/09/28 03:50:01;;;;;;;;;6.00;5.00;;;;;14.46;54.95;101806.56;5002860;28;45167;-49
2021/09/28 03:52:26;;;;;;;;;8.50;5.75;;;;;14.46;55.07;101801.28;5002874;28;45259;-49
2021/09/28 03:54:52;;;;;;;;;7.00;5.50;;;;;14.45;55.48;101797.78;5002634;28;45404;-48
2021/09/28 03:57:17;;;;;;;;;6.50;5.00;;;;;14.41;55.34;101798.69;5002272;28;45438;-47
2021/09/28 03:59:42;;;;;;;;;6.00;6.00;;;;;14.39;54.88;101800.50;5002692;28;45467;-48
2021/09/28 04:02:08;;;;;;;;;6.00;4.75;;;;;14.36;54.85;101804.94;5002623;28;47090;-48
2021/09/28 04:04:33;;;;;;;;;5.00;5.00;;;;;14.33;55.03;101802.34;5002541;28;45240;-50
2021/09/28 04:06:59;;;;;;;;;4.50;4.00;;;;;14.32;55.42;101806.75;5002895;28;45250;-46
2021/09/28 04:09:25;;;;;;;;;4.00;4.00;;;;;14.30;55.48;101809.41;5002487;28;45251;-46
2021/09/28 04:11:51;;;;;;;;;5.50;5.50;;;;;14.24;55.45;101808.63;5002291;28;46348;-48
2021/09/28 04:14:16;;;;;;;;;6.25;4.25;;;;;14.22;55.53;101805.97;5002199;28;45333;-48
2021/09/28 04:16:42;;;;;;;;;5.25;5.25;;;;;14.21;55.05;101814.81;5001263;28;45247;-47
2021/09/28 04:19:07;;;;;;;;;4.25;4.25;;;;;14.19;55.20;101808.69;5002487;28;45306;-49
2021/09/28 04:21:34;;;;;;;;;4.00;4.00;;;;;14.18;55.54;101806.06;5002337;28;45352;-47
2021/09/28 04:23:59;;;;;;;;;4.00;3.25;;;;;14.16;55.71;101810.47;5002127;28;45276;-47
2021/09/28 04:26:25;;;;;;;;;5.75;4.75;;;;;14.12;55.49;101805.25;5002287;28;45259;-50
2021/09/28 04:28:50;;;;;;;;;7.25;4.50;;;;;14.10;55.42;101807.03;5002236;28;45274;-47
2021/09/28 04:31:16;;;;;;;;;5.75;4.00;;;;;14.07;55.47;101804.41;5002220;28;46082;-49
2021/09/28 04:33:43;;;;;;;;;3.25;3.25;;;;;14.02;55.46;101794.78;5002192;28;45456;-49
2021/09/28 04:36:09;;;;;;;;;4.00;4.00;;;;;14.02;55.57;101797.44;5001995;28;45306;-48
2021/09/28 04:38:34;;;;;;;;;5.25;5.25;;;;;13.99;55.45;101801.00;5001852;28;45406;-50
2021/09/28 04:41:00;;;;;;;;;3.25;3.25;;;;;13.96;55.62;101793.97;5002036;28;46047;-50
2021/09/28 04:43:25;;;;;;;;;4.00;4.00;;;;;13.96;55.87;101798.38;5001556;28;45422;-49
2021/09/28 04:45:51;;;;;;;;;5.50;4.50;;;;;13.94;55.79;101800.16;5002208;28;45298;-48
2021/09/28 04:48:16;;;;;;;;;6.25;5.00;;;;;13.93;55.86;101801.06;5001893;28;45369;-47
2021/09/28 04:50:41;;;;;;;;;5.25;5.00;;;;;13.90;55.63;101799.31;5001350;28;46032;-48
2021/09/28 04:53:07;;;;;;;;;4.75;4.00;;;;;13.89;55.82;101797.56;5001963;28;45273;-49
2021/09/28 04:55:32;;;;;;;;;6.00;4.25;;;;;13.89;55.73;101802.84;5017153;28;45399;-50
2021/09/28 04:57:57;;;;;;;;;5.50;5.00;;;;;13.87;55.73;101794.06;5001574;28;45220;-50
2021/09/28 05:00:23;;;;;;;;;8.75;5.25;;;;;13.87;55.46;101804.63;5001567;28;46211;-50
2021/09/28 05:02:49;;;;;;;;;5.00;5.00;;;;;13.87;56.00;101816.97;5001648;28;45262;-50
2021/09/28 05:05:14;;;;;;;;;5.00;3.50;;;;;13.85;55.94;101810.81;5001904;28;45340;-48
2021/09/28 05:07:39;;;;;;;;;4.50;4.50;;;;;13.86;55.53;101802.00;5001671;28;45493;-50
2021/09/28 05:10:05;;;;;;;;;4.75;4.75;;;;;13.83;55.91;101813.50;5001971;28;45218;-51
2021/09/28 05:12:31;;;;;;;;;6.00;4.25;;;;;13.82;55.81;101809.97;5001211;28;45256;-50
2021/09/28 05:14:57;;;;;;;;;9.00;7.50;;;;;13.82;55.92;101807.34;5001712;28;45636;-47
2021/09/28 05:17:23;;;;;;;;;6.00;6.00;;;;;13.82;56.13;101795.88;5001481;28;45479;-48
2021/09/28 05:19:48;;;;;;;;;5.00;4.75;;;;;13.81;56.34;101804.69;5001400;28;45947;-50
2021/09/28 05:22:14;;;;;;;;;8.00;6.75;;;;;13.82;56.11;101812.63;5001400;28;45325;-49
2021/09/28 05:24:39;;;;;;;;;7.00;5.75;;;;;13.81;56.02;101807.34;5001639;28;45344;-50
2021/09/28 05:27:05;;;;;;;;;6.00;4.25;;;;;13.82;55.97;101809.09;5001102;28;45783;-51
2021/09/28 05:29:30;;;;;;;;;7.00;5.75;;;;;13.81;56.20;101805.59;5001331;28;45343;-51
2021/09/28 05:31:56;;;;;;;;;6.25;6.25;;;;;13.81;56.25;101809.97;5001198;28;45317;-51
2021/09/28 05:34:22;;;;;;;;;7.00;6.00;;;;;13.80;56.53;101818.81;5001262;28;45371;-51
2021/09/28 05:36:47;;;;;;;;;8.25;7.00;;;;;13.79;56.48;101804.72;5000983;28;45246;-50
2021/09/28 05:39:13;;;;;;;;;6.50;6.50;;;;;13.78;56.11;101800.31;5011195;28;47088;-47
2021/09/28 05:41:38;;;;;;;;;9.50;7.75;;;;;13.78;56.17;101802.09;5020657;28;45297;-49
2021/09/28 05:44:04;;;;;;;;;9.25;7.00;;;;;13.77;56.56;101795.06;5021107;28;45159;-44
2021/09/28 05:46:29;;;;;;;;;7.75;7.75;;;;;13.76;56.50;101798.59;5020860;28;45511;-45
2021/09/28 05:48:54;;;;;;;;;11.00;8.00;;;;;13.76;56.40;101785.38;5020890;28;45202;-46
2021/09/28 05:51:20;;;;;;;;;5.00;4.75;;;;;13.78;56.78;101791.53;5020777;28;45455;-46
2021/09/28 05:53:46;;;;;;;;;6.75;6.00;;;;;13.79;56.54;101782.72;5021008;28;45218;-47
2021/09/28 05:56:12;;;;;;;;;6.25;6.00;;;;;13.80;56.20;101787.97;5020183;28;45233;-48
2021/09/28 05:58:38;;;;;;;;;7.00;6.00;;;;;13.83;56.81;101787.06;5019244;28;46964;-49
2021/09/28 06:01:03;;;;;;;;;7.00;6.00;;;;;13.85;56.77;101794.97;5020452;28;45396;-46
2021/09/28 06:03:29;;;;;;;;;5.75;5.75;;;;;13.87;56.35;101799.34;5020857;28;45936;-51
2021/09/28 06:05:55;;;;;;;;;4.50;4.50;;;;;13.87;56.17;101804.63;5019362;28;45755;-49
2021/09/28 06:08:20;;;;;;;;;6.50;6.00;;;;;13.89;56.45;101799.34;5020540;28;46271;-48
2021/09/28 06:10:45;;;;;;;;;6.75;6.25;;;;;13.90;56.44;101806.34;5018588;28;45342;-45
2021/09/28 06:13:11;;;;;;;;;6.00;5.00;;;;;13.90;56.17;101803.72;5020347;28;45310;-45
2021/09/28 06:15:37;;;;;;;;;6.25;6.00;;;;;13.92;56.41;101812.50;5018966;28;45470;-47
2021/09/28 06:18:02;;;;;;;;;7.25;5.25;;;;;13.92;56.66;101801.94;5020539;28;47624;-45
2021/09/28 06:20:27;;;;;;;;;6.25;6.00;;;;;13.94;56.45;101800.16;5019255;28;45304;-43
2021/09/28 06:22:53;;;;;;;;;7.50;6.25;;;;;13.95;56.29;101797.50;5020676;28;45384;-51
2021/09/28 06:25:18;;;;;;;;;8.00;6.25;;;;;13.98;56.62;101808.03;5020328;28;45447;-49
2021/09/28 06:27:43;;;;;;;;;6.25;6.25;;;;;14.00;56.55;101809.78;5020034;28;46101;-51
2021/09/28 06:30:09;;;;;;;;;7.00;6.50;;;;;13.98;56.20;101793.94;5020195;28;45252;-48
2021/09/28 06:32:35;;;;;;;;;7.00;6.00;;;;;13.99;56.62;101795.69;5020459;28;45247;-50
2021/09/28 06:35:00;;;;;;;;;5.25;5.25;;;;;14.04;56.39;101791.22;5020001;28;45167;-50
2021/09/28 06:37:25;;;;;;;;;5.00;5.00;;;;;14.06;56.30;101802.69;5010096;28;45235;-48
2021/09/28 06:39:51;;;;;;;;;5.75;5.50;;;;;14.05;56.61;101803.56;5015447;28;45298;-49
2021/09/28 06:42:16;;;;;;;;;4.25;4.25;;;;;14.12;56.70;101812.28;5019916;28;45470;-49
2021/09/28 06:44:41;;;;;;;;;7.50;4.50;;;;;14.09;56.45;101801.75;5020039;28;45150;-49
2021/09/28 06:47:07;;;;;;;;;5.25;4.75;;;;;14.11;56.31;101810.53;5020167;28;45692;-51
2021/09/28 06:49:32;;;;;;;;;6.50;5.00;;;;;14.12;56.78;101805.25;5019933;28;45392;-48
2021/09/28 06:51:58;;;;;;;;;5.00;5.00;;;;;14.14;56.18;101803.44;5020225;28;45249;-49
2021/09/28 06:54:23;;;;;;;;;4.50;4.00;;;;;14.15;56.42;101791.13;5019931;28;45349;-46
2021/09/28 06:56:49;;;;;;;;;6.00;4.00;;;;;14.17;56.66;101791.94;5019459;28;45360;-48
2021/09/28 06:59:14;;;;;;;;;4.50;4.00;;;;;14.20;56.43;101798.97;5019844;28;45350;-48
2021/09/28 07:01:40;;;;;;;;;4.75;4.75;;;;;14.21;56.24;101798.94;5020117;28;45297;-48
2021/09/28 07:04:06;;;;;;;;;6.00;4.25;;;;;14.23;56.41;101794.53;5019856;28;45645;-49
2021/09/28 07:06:33;;;;;;;;;5.00;4.00;;;;;14.27;56.22;101795.38;5018581;28;48495;-49
2021/09/28 07:08:59;;;;;;;;;3.25;3.25;;;;;14.29;56.25;101794.44;5019632;28;45267;-47
2021/09/28 07:11:24;;;;;;;;;6.50;6.50;;;;;14.31;56.27;101794.41;5019674;28;45366;-49
2021/09/28 07:13:50;;;;;;;;;6.00;6.00;;;;;14.33;56.23;101794.41;5019483;28;45293;-46
2021/09/28 07:16:16;;;;;;;;;6.00;5.00;;;;;14.36;56.58;101797.00;5019573;28;45753;-50
2021/09/28 07:18:42;;;;;;;;;6.00;6.00;;;;;14.39;56.64;101794.31;5019579;28;45241;-47
2021/09/28 07:21:08;;;;;;;;;6.75;5.00;;;;;14.42;56.01;101792.50;5019694;28;45344;-47
2021/09/28 07:23:33;;;;;;;;;8.25;6.00;;;;;14.45;56.71;101789.84;5021139;28;45423;-50
2021/09/28 07:26:00;;;;;;;;;7.75;5.00;;;;;14.49;56.62;101795.06;5022699;28;46159;-47
2021/09/28 07:28:25;;;;;;;;;6.75;6.25;;;;;14.50;56.54;101788.88;5022921;28;45431;-47
2021/09/28 07:30:51;;;;;;;;;9.75;7.50;;;;;14.55;56.31;101790.59;5023124;28;45231;-45
2021/09/28 07:33:17;;;;;;;;;6.00;6.00;;;;;14.57;56.02;101783.47;5023091;28;45403;-50
2021/09/28 07:35:45;;;;;;;;;4.50;4.50;;;;;14.60;56.65;101793.16;5022608;28;45976;-49
2021/09/28 07:38:12;;;;;;;;;5.00;4.00;;;;;14.60;56.50;101785.22;5006437;28;45219;-49
2021/09/28 07:40:44;;;;;;;;;6.25;4.25;;;;;14.62;56.63;101779.00;5003281;28;45262;-47
2021/09/28 07:43:10;;;;;;;;;4.75;4.75;;;;;14.65;56.54;101788.69;5002467;28;45280;-48
2021/09/28 07:45:36;;;;;;;;;4.50;4.50;;;;;14.68;56.51;101787.78;5002821;28;46041;-48
2021/09/28 07:48:01;;;;;;;;;4.00;4.00;;;;;14.69;56.60;101785.13;5002907;28;45412;-48
2021/09/28 07:50:27;;;;;;;;;6.00;5.00;;;;;14.73;56.33;101792.13;5003052;28;45348;-47
2021/09/28 07:52:52;;;;;;;;;6.00;5.75;;;;;14.77;56.67;101792.94;5002846;28;45620;-46
2021/09/28 07:55:18;;;;;;;;;8.50;7.25;;;;;14.81;56.17;101792.00;5002491;28;45294;-50
2021/09/28 07:57:43;;;;;;;;;10.00;9.00;;;;;14.85;56.59;101798.13;5002342;28;45328;-50
2021/09/28 08:00:10;;;;;;;;;5.75;5.75;;;;;14.89;56.18;101795.41;5002953;28;45383;-47
2021/09/28 08:02:38;;;;;;;;;7.25;5.00;;;;;14.92;56.13;101794.50;5002653;28;45429;-47
2021/09/28 08:05:08;;;;;;;;;9.75;8.75;;;;;14.97;56.43;101800.59;5002541;28;46087;-46
2021/09/28 08:07:34;;;;;;;;;6.00;6.00;;;;;15.02;55.98;101797.84;5002524;28;45397;-47
2021/09/28 08:10:00;;;;;;;;;8.25;7.00;;;;;15.05;55.88;101798.66;5002693;28;45519;-46
2021/09/28 08:12:25;;;;;;;;;12.00;10.00;;;;;15.10;56.47;101798.59;5000884;28;45513;-47
2021/09/28 08:14:51;;;;;;;;;12.00;10.00;;;;;15.16;56.54;101797.66;5002387;28;46312;-46
2021/09/28 08:17:16;;;;;;;;;10.25;10.25;;;;;15.20;56.48;101802.84;5002247;28;45352;-49
2021/09/28 08:19:43;;;;;;;;;6.00;5.00;;;;;15.23;56.32;101791.31;5002644;28;45331;-50
2021/09/28 08:22:10;;;;;;;;;6.00;6.00;;;;;15.30;56.30;101792.97;5002318;28;45524;-50
2021/09/28 08:24:42;;;;;;;;;7.50;6.50;;;;;15.35;56.42;101796.41;5002281;28;45317;-48
2021/09/28 08:29:57;;;;;;;;;4.75;4.00;;;;;15.47;56.00;101794.44;5002368;28;45167;-47
2021/09/28 08:32:23;;;;;;;;;4.75;4.50;;;;;15.52;55.94;101796.13;5002204;28;45333;-47
2021/09/28 08:34:49;;;;;;;;;5.25;4.25;;;;;15.58;56.39;101795.13;5001181;28;46058;-51
2021/09/28 08:37:16;;;;;;;;;7.50;5.00;;;;;15.65;56.30;101790.63;5002132;28;45432;-49
2021/09/28 08:39:41;;;;;;;;;6.50;3.75;;;;;15.69;56.19;101792.28;5002067;28;45329;-50
2021/09/28 08:42:07;;;;;;;;;6.00;4.75;;;;;15.77;56.21;101793.00;5001726;28;45453;-47
2021/09/28 08:44:33;;;;;;;;;5.50;4.00;;;;;15.85;56.21;101790.25;5002040;28;45318;-50
2021/09/28 08:46:58;;;;;;;;;4.75;4.75;;;;;15.91;56.06;101790.13;5002102;28;45233;-49
2021/09/28 08:49:24;;;;;;;;;6.00;4.75;;;;;15.95;56.25;101785.63;5001975;28;45699;-47
2021/09/28 08:51:51;;;;;;;;;7.50;6.50;;;;;16.01;56.19;101793.47;5002164;28;45456;-47
2021/09/28 08:54:17;;;;;;;;;10.00;7.75;;;;;16.10;55.88;101798.59;5001753;28;46363;-49
2021/09/28 08:56:43;;;;;;;;;6.25;6.25;;;;;16.16;55.91;101789.63;5001619;28;45425;-47
2021/09/28 08:59:10;;;;;;;;;9.00;9.00;;;;;16.23;55.88;101791.25;5001678;28;45306;-50
2021/09/28 09:01:37;;;;;;;;;9.75;9.75;;;;;16.30;55.92;101791.97;5001656;28;45344;-47
2021/09/28 09:04:17;;;;;;;;;10.25;9.50;;;;;16.37;56.37;101796.25;5001336;28;47158;-48
2021/09/28 09:06:47;;;;;;;;;10.25;9.00;;;;;16.45;55.94;101786.34;5001807;28;45430;-49
2021/09/28 09:09:14;;;;;;;;;8.00;7.00;;;;;16.53;56.17;101787.03;5001717;28;45359;-47
2021/09/28 09:11:42;;;;;;;;;5.00;4.00;;;;;16.63;55.99;101786.81;5001580;28;45243;-45
2021/09/28 09:14:15;;;;;;;;;5.25;4.00;;;;;16.72;55.87;101794.59;5001079;28;47204;-45
2021/09/28 09:16:41;;;;;;;;;7.50;7.50;;;;;16.81;55.82;101798.81;5001505;28;45245;-45
2021/09/28 09:19:13;;;;;;;;;8.75;7.00;;;;;16.87;55.87;101796.03;5001514;28;45628;-48
2021/09/28 09:21:58;;;;;;;;;5.00;4.50;;;;;16.95;55.96;101790.56;5001355;28;45210;-49
2021/09/28 09:24:49;;;;;;;;;8.25;5.75;;;;;17.04;56.09;101791.22;4999913;28;45464;-48
2021/09/28 09:27:33;;;;;;;;;6.00;3.75;;;;;17.14;55.82;101786.50;5020771;28;45357;-47
2021/09/28 09:30:32;;;;;;;;;7.25;4.00;;;;;17.24;55.67;101784.50;5021132;28;45466;-45
2021/09/28 09:32:59;;;;;;;;;8.50;6.00;;;;;17.33;55.75;101784.28;5009232;28;45524;-48
2021/09/28 09:35:27;;;;;;;;;4.00;4.00;;;;;17.41;55.71;101780.53;5020699;28;46469;-47
2021/09/28 09:38:07;;;;;;;;;3.25;3.00;;;;;17.48;55.53;101768.84;5007188;28;45250;-47
2021/09/28 09:40:43;;;;;;;;;5.00;4.25;;;;;17.52;55.59;101766.06;5001340;28;45234;-48
2021/09/28 09:43:10;;;;;;;;;5.25;5.25;;;;;17.61;55.29;101772.03;4999360;28;45389;-49
2021/09/28 09:45:36;;;;;;;;;5.00;5.00;;;;;17.67;55.66;101756.81;4999953;28;45356;-45
2021/09/28 09:48:25;;;;;;;;;3.00;3.00;;;;;17.75;55.34;101758.34;5001124;28;45301;-49
2021/09/28 09:51:18;;;;;;;;;5.00;3.00;;;;;17.83;55.22;101759.88;5001236;28;45428;-49
2021/09/28 09:53:54;;;;;;;;;8.00;3.75;;;;;17.92;54.98;101757.88;5000907;28;45269;-49
2021/09/28 09:56:21;;;;;;;;;5.00;4.25;;;;;17.98;55.26;101757.75;5000454;28;46181;-45
2021/09/28 09:58:47;;;;;;;;;4.00;3.00;;;;;18.06;54.91;101753.06;5000748;28;45364;-47
2021/09/28 10:01:14;;;;;;;;;4.75;3.50;;;;;18.15;54.81;101746.59;5000794;28;45254;-48
2021/09/28 10:03:41;;;;;;;;;6.50;4.00;;;;;18.24;54.56;101742.78;5000816;28;45190;-47
2021/09/28 10:06:06;;;;;;;;;3.50;3.00;;;;;18.31;54.51;101739.03;5016122;28;46953;-48
2021/09/28 10:08:33;;;;;;;;;3.00;2.00;;;;;18.39;54.61;101733.47;5015984;28;45390;-47
2021/09/28 10:11:00;;;;;;;;;4.25;3.00;;;;;18.48;54.46;101734.03;5000617;28;45332;-48
2021/09/28 10:13:53;;;;;;;;;2.25;2.25;;;;;18.57;54.38;101735.53;5000582;28;45482;-49
2021/09/28 10:16:38;;;;;;;;;3.00;3.00;;;;;18.68;54.27;101732.56;5000197;28;46350;-46
2021/09/28 10:19:27;;;;;;;;;2.00;1.75;;;;;18.78;53.45;101728.66;5016202;28;45358;-45
2021/09/28 10:21:53;;;;;;;;;4.00;3.25;;;;;18.82;53.34;101719.63;5020242;28;45490;-49
2021/09/28 10:24:18;;;;;;;;;2.00;2.00;;;;;18.88;53.52;101728.34;5020426;28;45217;-45
2021/09/28 10:27:07;;;;;;;;;2.75;2.00;;;;;18.96;53.45;101731.66;5019898;28;46065;-46
2021/09/28 10:29:44;;;;;;;;;4.50;3.50;;;;;19.04;53.06;101728.75;5017290;28;45420;-48
2021/09/28 10:32:25;;;;;;;;;2.25;2.25;;;;;19.15;53.05;101721.25;5020347;28;45328;-48
2021/09/28 10:35:08;;;;;;;;;3.00;2.25;;;;;19.26;53.23;101723.56;5019860;28;45295;-47
2021/09/28 10:37:43;;;;;;;;;3.25;3.00;;;;;19.38;52.98;101717.75;5008728;28;47364;-49
2021/09/28 10:40:28;;;;;;;;;2.25;2.25;;;;;19.51;53.40;101717.31;5000149;28;45293;-47
2021/09/28 10:43:00;;;;;;;;;1.50;1.25;;;;;19.63;52.81;101715.09;4999804;28;45429;-48
2021/09/28 10:45:28;;;;;;;;;1.50;1.25;;;;;19.74;53.22;101720.00;5000180;28;45371;-44
2021/09/28 10:47:55;;;;;;;;;2.25;1.50;;;;;19.83;53.04;101708.16;5000047;28;47079;-46
2021/09/28 10:50:33;;;;;;;;;7.75;3.00;;;;;19.94;52.64;101707.78;5000090;28;45276;-47
2021/09/28 10:53:19;;;;;;;;;3.00;2.00;;;;;20.06;52.30;101717.09;5000212;28;45450;-45
2021/09/28 10:56:11;;;;;;;;;1.00;1.00;;;;;20.16;52.03;101717.59;4999066;28;45577;-44
2021/09/28 10:58:51;;;;;;;;;1.00;1.00;;;;;20.22;52.55;101718.22;5000388;28;46295;-48
2021/09/28 11:01:16;;;;;;;;;3.75;1.75;;;;;20.27;52.03;101710.91;5019721;28;45376;-50
2021/09/28 11:04:02;;;;;;;;;1.50;1.25;;;;;20.40;52.12;101705.06;5018671;28;45398;-46
2021/09/28 11:06:43;;;;;;;;;2.50;2.00;;;;;20.48;52.31;101702.09;5020050;28;45210;-47
2021/09/28 11:09:09;;;;;;;;;1.00;1.00;;;;;20.54;52.31;101708.06;5019478;28;46321;-50
2021/09/28 11:11:35;;;;;;;;;0.75;0.75;;;;;20.58;52.03;101700.81;5019447;28;45327;-48
2021/09/28 11:14:03;;;;;;;;;2.00;2.00;;;;;20.62;51.48;101700.59;5019482;28;45365;-48
2021/09/28 11:16:28;;;;;;;;;3.50;1.25;;;;;20.64;50.66;101687.22;5019562;28;45475;-50
2021/09/28 11:18:59;;;;;;;;;3.25;2.00;;;;;20.69;50.90;101695.91;5019463;28;46272;-47
2021/09/28 11:21:25;;;;;;;;;4.00;2.00;;;;;20.69;50.99;101685.22;5019639;28;45340;-48
2021/09/28 11:23:54;;;;;;;;;1.00;1.00;;;;;20.71;50.73;101694.03;5019617;28;45372;-48
2021/09/28 11:26:30;;;;;;;;;1.75;0.75;;;;;20.74;50.59;101682.34;5019292;28;45245;-47
2021/09/28 11:28:56;;;;;;;;;2.00;2.00;;;;;20.80;50.81;101684.78;5019256;28;46889;-47